createdAt,value
2022-11-25T00:00:51.035Z,16.05
2022-11-25T00:03:56.588Z,17.25
2022-11-25T00:07:00.128Z,16.80
2022-11-25T00:10:04.000Z,17.07
2022-11-25T00:13:06.968Z,16.42
2022-11-25T00:16:13.094Z,17.30
2022-11-25T00:19:17.114Z,17.00
2022-11-25T00:22:20.413Z,16.98
2022-11-25T00:25:23.043Z,16.97
2022-11-25T00:28:27.777Z,18.10
2022-11-25T00:31:34.995Z,17.58
2022-11-25T00:34:38.511Z,17.00
2022-11-25T00:37:41.988Z,18.20
2022-11-25T00:41:04.715Z,17.77
2022-11-25T00:44:29.370Z,19.55
2022-11-25T00:47:33.322Z,18.05
2022-11-25T00:50:37.606Z,17.98
2022-11-25T00:53:41.075Z,18.15
2022-11-25T00:56:44.529Z,18.23
2022-11-25T00:59:48.598Z,18.40
2022-11-25T01:02:52.038Z,18.13
2022-11-25T01:05:54.821Z,17.80
2022-11-25T01:08:58.158Z,18.00
2022-11-25T01:12:00.955Z,19.07
2022-11-25T01:15:06.875Z,18.75
2022-11-25T01:18:11.673Z,18.38
2022-11-25T01:21:22.103Z,18.58
2022-11-25T01:24:26.426Z,17.65
2022-11-25T01:27:30.624Z,18.23
2022-11-25T01:30:38.283Z,18.48
2022-11-25T01:33:44.674Z,18.58
2022-11-25T01:36:48.082Z,17.88
2022-11-25T01:39:51.601Z,17.92
2022-11-25T01:42:54.157Z,17.03
2022-11-25T01:46:19.111Z,17.58
2022-11-25T01:49:37.326Z,17.45
2022-11-25T01:52:45.720Z,16.80
2022-11-25T01:56:00.293Z,18.83
2022-11-25T01:59:03.841Z,17.80
2022-11-25T02:02:07.259Z,17.77
2022-11-25T02:05:17.395Z,17.45
2022-11-25T02:08:23.097Z,17.58
2022-11-25T02:11:30.765Z,16.65
2022-11-25T02:14:33.614Z,17.37
2022-11-25T02:17:37.055Z,18.02
2022-11-25T02:20:41.741Z,19.10
2022-11-25T02:23:56.703Z,18.52
2022-11-25T02:30:05.543Z,18.97
2022-11-25T02:33:09.148Z,18.85
2022-11-25T02:36:20.127Z,18.33
2022-11-25T02:39:23.163Z,16.63
2022-11-25T02:42:30.035Z,16.60
2022-11-25T02:45:42.757Z,17.40
2022-11-25T02:49:07.836Z,16.65
2022-11-25T02:52:09.092Z,16.52
2022-11-25T02:55:12.667Z,16.92
2022-11-25T02:58:16.153Z,16.17
2022-11-25T03:01:18.956Z,17.03
2022-11-25T03:04:21.745Z,16.45
2022-11-25T03:07:24.483Z,16.58
2022-11-25T03:10:28.949Z,16.10
2022-11-25T03:13:31.583Z,16.83
2022-11-25T03:16:35.327Z,14.97
2022-11-25T03:19:40.247Z,16.02
2022-11-25T03:22:44.259Z,16.30
2022-11-25T03:25:47.849Z,16.85
2022-11-25T03:28:50.471Z,16.88
2022-11-25T03:31:53.803Z,16.07
2022-11-25T03:34:56.883Z,16.30
2022-11-25T03:37:59.760Z,16.50
2022-11-25T03:41:03.240Z,16.08
2022-11-25T03:44:08.212Z,15.05
2022-11-25T03:47:11.680Z,14.20
2022-11-25T03:50:16.173Z,14.40
2022-11-25T03:53:21.189Z,14.65
2022-11-25T03:56:24.212Z,14.10
2022-11-25T03:59:27.122Z,15.13
2022-11-25T04:02:30.088Z,14.60
2022-11-25T04:05:33.721Z,13.85
2022-11-25T04:08:40.933Z,13.98
2022-11-25T04:12:03.538Z,14.32
2022-11-25T04:15:17.562Z,14.70
2022-11-25T04:18:23.840Z,13.67
2022-11-25T04:21:31.918Z,13.48
2022-11-25T04:24:37.248Z,14.25
2022-11-25T04:27:41.836Z,14.48
2022-11-25T04:30:45.599Z,14.27
2022-11-25T04:33:52.551Z,13.93
2022-11-25T04:36:57.084Z,13.85
2022-11-25T04:40:00.615Z,15.23
2022-11-25T04:43:10.383Z,14.40
2022-11-25T04:46:19.567Z,13.63
2022-11-25T04:49:25.122Z,15.13
2022-11-25T04:52:28.931Z,15.63
2022-11-25T04:55:32.417Z,14.93
2022-11-25T04:58:57.933Z,14.07
2022-11-25T05:02:00.740Z,14.00
2022-11-25T05:05:13.262Z,14.33
2022-11-25T05:08:16.263Z,14.25
2022-11-25T05:11:19.151Z,15.43
2022-11-25T05:14:24.076Z,14.77
2022-11-25T05:17:29.995Z,14.65
2022-11-25T05:20:34.814Z,14.07
2022-11-25T05:23:38.442Z,14.88
2022-11-25T05:26:41.140Z,15.27
2022-11-25T05:29:44.411Z,14.43
2022-11-25T05:32:47.976Z,13.32
2022-11-25T05:35:56.068Z,13.83
2022-11-25T05:39:01.362Z,14.00
2022-11-25T05:42:20.792Z,13.23
2022-11-25T05:45:24.054Z,14.38
2022-11-25T05:48:26.874Z,26.35
2022-11-25T05:51:31.038Z,13.77
2022-11-25T05:54:37.090Z,15.73
2022-11-25T05:57:40.434Z,14.48
2022-11-25T06:00:45.853Z,18.00
2022-11-25T06:03:48.692Z,15.43
2022-11-25T06:06:53.018Z,14.40
2022-11-25T06:10:02.677Z,16.42
2022-11-25T06:13:09.232Z,16.85
2022-11-25T06:16:15.802Z,16.17
2022-11-25T06:19:21.079Z,16.00
2022-11-25T06:22:23.854Z,16.10
2022-11-25T06:25:27.766Z,17.90
2022-11-25T06:28:33.521Z,16.25
2022-11-25T06:31:37.049Z,15.73
2022-11-25T06:34:52.055Z,16.88
2022-11-25T06:38:17.158Z,16.20
2022-11-25T06:41:21.688Z,16.40
2022-11-25T06:44:24.272Z,15.32
2022-11-25T06:47:27.427Z,16.52
2022-11-25T06:50:30.845Z,17.83
2022-11-25T06:53:39.494Z,18.00
2022-11-25T06:56:52.980Z,17.83
2022-11-25T06:59:59.515Z,18.17
2022-11-25T07:03:03.594Z,18.67
2022-11-25T07:06:07.798Z,17.75
2022-11-25T07:09:39.259Z,17.77
2022-11-25T07:12:43.175Z,17.73
2022-11-25T07:15:45.959Z,17.10
2022-11-25T07:19:03.380Z,17.52
2022-11-25T07:22:05.994Z,16.77
2022-11-25T07:25:09.880Z,15.73
2022-11-25T07:28:13.636Z,15.73
2022-11-25T07:31:23.775Z,16.80
2022-11-25T07:34:27.238Z,16.58
2022-11-25T07:37:29.861Z,17.50
2022-11-25T07:40:55.916Z,16.53
2022-11-25T07:44:06.202Z,17.60
2022-11-25T07:47:20.887Z,16.98
2022-11-25T07:50:24.630Z,17.98
2022-11-25T07:53:28.158Z,19.83
2022-11-25T07:56:50.903Z,17.93
2022-11-25T07:59:54.336Z,17.17
2022-11-25T08:02:56.918Z,16.95
2022-11-25T08:06:04.984Z,16.35
2022-11-25T08:09:09.799Z,15.25
2022-11-25T08:12:13.544Z,15.43
2022-11-25T08:15:17.051Z,15.65
2022-11-25T08:18:20.675Z,14.90
2022-11-25T08:21:25.469Z,13.70
2022-11-25T08:24:29.165Z,14.23
2022-11-25T08:27:32.672Z,13.17
2022-11-25T08:30:36.879Z,12.95
2022-11-25T08:33:40.415Z,13.85
2022-11-25T08:36:47.986Z,14.13
2022-11-25T08:39:53.839Z,14.25
2022-11-25T08:43:04.959Z,15.13
2022-11-25T08:46:14.499Z,14.55
2022-11-25T08:49:19.873Z,14.63
2022-11-25T08:52:25.288Z,15.63
2022-11-25T08:55:28.707Z,14.68
2022-11-25T08:58:31.923Z,14.80
2022-11-25T09:01:35.916Z,14.07
2022-11-25T09:04:39.692Z,14.60
2022-11-25T09:07:43.611Z,14.30
2022-11-25T09:10:47.529Z,15.75
2022-11-25T09:13:50.511Z,14.33
2022-11-25T09:16:53.759Z,15.68
2022-11-25T09:19:56.562Z,14.60
2022-11-25T09:23:05.599Z,14.20
2022-11-25T09:26:28.647Z,13.55
2022-11-25T09:29:32.862Z,12.47
2022-11-25T09:32:36.150Z,13.50
2022-11-25T09:35:40.705Z,14.10
2022-11-25T09:38:46.563Z,14.07
2022-11-25T09:42:26.215Z,35.70
2022-11-25T09:46:10.613Z,15.70
2022-11-25T09:49:30.803Z,14.00
2022-11-25T09:53:11.579Z,12.85
2022-11-25T09:56:38.961Z,12.48
2022-11-25T09:59:57.407Z,13.63
2022-11-25T10:03:26.362Z,12.27
2022-11-25T10:06:32.917Z,12.40
2022-11-25T10:09:36.361Z,13.02
2022-11-25T10:12:43.671Z,13.02
2022-11-25T10:16:03.335Z,12.30
2022-11-25T10:19:30.302Z,11.30
2022-11-25T10:22:37.541Z,12.43
2022-11-25T10:25:48.443Z,12.32
2022-11-25T10:29:00.559Z,12.52
2022-11-25T10:32:34.915Z,13.32
2022-11-25T10:35:52.084Z,12.80
2022-11-25T10:39:37.247Z,12.68
2022-11-25T10:42:46.953Z,12.88
2022-11-25T10:47:11.756Z,12.23
2022-11-25T10:50:36.524Z,10.98
2022-11-25T10:54:25.605Z,11.50
2022-11-25T10:57:32.765Z,41.38
2022-11-25T11:00:45.170Z,13.05
2022-11-25T11:04:05.193Z,11.68
2022-11-25T11:07:09.499Z,10.77
2022-11-25T11:10:15.611Z,10.77
2022-11-25T11:13:23.073Z,9.75
2022-11-25T11:16:32.604Z,10.98
2022-11-25T11:19:36.655Z,10.98
2022-11-25T11:22:49.435Z,13.68
2022-11-25T11:26:09.471Z,13.27
2022-11-25T11:29:17.527Z,15.27
2022-11-25T11:32:24.668Z,16.08
2022-11-25T11:36:01.628Z,11.82
2022-11-25T11:39:26.539Z,11.52
2022-11-25T11:42:36.851Z,14.47
2022-11-25T11:46:07.146Z,11.23
2022-11-25T11:49:30.869Z,15.85
2022-11-25T11:52:54.910Z,16.17
2022-11-25T11:59:53.567Z,16.13
2022-11-25T12:03:13.228Z,15.05
2022-11-25T12:06:18.316Z,15.57
2022-11-25T12:09:30.945Z,14.23
2022-11-25T12:12:45.090Z,14.77
2022-11-25T12:15:48.248Z,12.90
2022-11-25T12:19:05.668Z,13.48
2022-11-25T12:22:18.653Z,12.80
2022-11-25T12:25:24.982Z,12.02
2022-11-25T12:28:38.134Z,11.73
2022-11-25T12:31:52.309Z,11.60
2022-11-25T12:35:25.258Z,11.93
2022-11-25T12:38:40.082Z,11.77
2022-11-25T12:41:47.330Z,10.32
2022-11-25T12:45:00.769Z,9.07
2022-11-25T12:48:03.693Z,9.00
2022-11-25T12:51:19.878Z,9.98
2022-11-25T12:54:34.762Z,10.18
2022-11-25T12:57:49.058Z,9.15
2022-11-25T13:01:16.666Z,9.63
2022-11-25T13:04:44.755Z,8.77
2022-11-25T13:08:19.639Z,9.73
2022-11-25T13:11:47.963Z,8.95
2022-11-25T13:15:01.612Z,7.90
2022-11-25T13:18:12.199Z,7.95
2022-11-25T13:21:16.724Z,7.23
2022-11-25T13:24:40.536Z,7.80
2022-11-25T13:27:43.853Z,7.05
2022-11-25T13:30:51.597Z,7.57
2022-11-25T13:33:57.705Z,7.60
2022-11-25T13:37:12.617Z,7.20
2022-11-25T13:40:20.259Z,6.97
2022-11-25T13:43:23.198Z,7.90
2022-11-25T13:46:36.187Z,7.85
2022-11-25T13:49:52.506Z,7.40
2022-11-25T13:53:03.410Z,7.47
2022-11-25T13:56:24.661Z,7.43
2022-11-25T13:59:37.933Z,7.47
2022-11-25T14:02:49.738Z,7.50
2022-11-25T14:06:20.495Z,8.10
2022-11-25T14:09:55.933Z,8.17
2022-11-25T14:13:26.911Z,8.40
2022-11-25T14:17:05.413Z,8.98
2022-11-25T14:20:26.970Z,8.77
2022-11-25T14:23:44.829Z,8.07
2022-11-25T14:26:52.011Z,8.80
2022-11-25T14:30:00.021Z,8.43
2022-11-25T14:33:08.360Z,9.93
2022-11-25T14:36:15.666Z,9.45
2022-11-25T14:39:25.322Z,10.55
2022-11-25T14:42:34.946Z,9.90
2022-11-25T14:45:38.159Z,10.18
2022-11-25T14:48:42.307Z,10.77
2022-11-25T14:51:49.860Z,10.70
2022-11-25T14:54:54.895Z,10.43
2022-11-25T14:57:58.442Z,10.60
2022-11-25T15:01:06.635Z,10.98
2022-11-25T15:04:09.874Z,11.07
2022-11-25T15:07:18.731Z,14.90
2022-11-25T15:10:39.710Z,13.02
2022-11-25T15:13:48.836Z,10.93
2022-11-25T15:16:52.550Z,10.95
2022-11-25T15:19:58.292Z,11.00
2022-11-25T15:23:06.001Z,10.90
2022-11-25T15:26:24.991Z,10.52
2022-11-25T15:29:29.640Z,10.67
2022-11-25T15:32:33.929Z,12.30
2022-11-25T15:35:37.033Z,12.10
2022-11-25T15:38:43.710Z,11.68
2022-11-25T15:41:50.603Z,11.65
2022-11-25T15:45:06.924Z,10.57
2022-11-25T15:48:34.892Z,12.40
2022-11-25T15:51:41.715Z,11.57
2022-11-25T15:54:48.453Z,17.40
2022-11-25T15:57:53.388Z,17.55
2022-11-25T16:01:18.178Z,17.43
2022-11-25T16:04:21.825Z,17.30
2022-11-25T16:07:24.510Z,20.20
2022-11-25T16:10:31.656Z,18.27
2022-11-25T16:13:37.073Z,19.55
2022-11-25T16:16:40.369Z,19.53
2022-11-25T16:19:46.958Z,21.40
2022-11-25T16:22:49.845Z,22.60
2022-11-25T16:25:58.460Z,21.85
2022-11-25T16:29:08.328Z,22.35
2022-11-25T16:32:15.172Z,21.07
2022-11-25T16:35:21.823Z,21.50
2022-11-25T16:38:25.123Z,21.60
2022-11-25T16:41:27.823Z,22.65
2022-11-25T16:44:34.016Z,22.77
2022-11-25T16:47:37.163Z,21.77
2022-11-25T16:50:40.021Z,21.33
2022-11-25T16:53:43.735Z,23.20
2022-11-25T16:56:54.951Z,22.77
2022-11-25T17:00:00.940Z,21.77
2022-11-25T17:03:05.823Z,22.10
2022-11-25T17:06:22.326Z,22.25
2022-11-25T17:09:25.704Z,23.20
2022-11-25T17:12:34.559Z,26.00
2022-11-25T17:15:38.397Z,22.13
2022-11-25T17:18:41.169Z,21.63
2022-11-25T17:21:44.628Z,22.17
2022-11-25T17:24:48.077Z,23.63
2022-11-25T17:27:51.598Z,22.80
2022-11-25T17:30:55.135Z,23.73
2022-11-25T17:33:57.649Z,22.60
2022-11-25T17:37:00.184Z,21.98
2022-11-25T17:40:02.598Z,23.23
2022-11-25T17:43:05.777Z,25.02
2022-11-25T17:46:12.697Z,22.75
2022-11-25T17:49:17.022Z,21.67
2022-11-25T17:52:20.234Z,23.23
2022-11-25T17:55:23.018Z,22.60
2022-11-25T17:58:25.605Z,22.75
2022-11-25T18:01:28.101Z,26.52
2022-11-25T18:04:36.459Z,26.30
2022-11-25T18:07:40.265Z,26.73
2022-11-25T18:10:45.592Z,26.92
2022-11-25T18:13:49.105Z,27.58
2022-11-25T18:16:52.922Z,26.67
2022-11-25T18:19:56.489Z,22.87
2022-11-25T18:23:00.828Z,24.73
2022-11-25T18:26:05.148Z,22.35
2022-11-25T18:29:15.452Z,21.98
2022-11-25T18:32:18.701Z,22.85
2022-11-25T18:35:35.825Z,22.90
2022-11-25T18:38:42.551Z,21.55
2022-11-25T18:41:46.428Z,21.13
2022-11-25T18:44:49.002Z,21.95
2022-11-25T18:47:52.327Z,21.67
2022-11-25T18:50:57.099Z,28.17
2022-11-25T18:54:00.253Z,27.35
2022-11-25T18:57:02.857Z,28.83
2022-11-25T19:00:31.805Z,23.63
2022-11-25T19:03:35.768Z,21.50
2022-11-25T19:06:43.977Z,23.03
2022-11-25T19:09:47.312Z,20.23
2022-11-25T19:12:57.620Z,20.55
2022-11-25T19:16:06.325Z,18.83
2022-11-25T19:19:14.585Z,19.13
2022-11-25T19:22:18.946Z,19.73
2022-11-25T19:25:22.143Z,19.48
2022-11-25T19:28:24.937Z,23.50
2022-11-25T19:31:31.898Z,23.52
2022-11-25T19:34:43.789Z,22.65
2022-11-25T19:37:46.294Z,22.63
2022-11-25T19:40:49.867Z,23.98
2022-11-25T19:43:52.882Z,27.48
2022-11-25T19:47:14.925Z,24.75
2022-11-25T19:50:21.574Z,21.80
2022-11-25T19:53:24.336Z,20.87
2022-11-25T19:56:31.782Z,21.13
2022-11-25T19:59:35.509Z,22.60
2022-11-25T20:02:38.618Z,20.30
2022-11-25T20:05:42.233Z,19.83
2022-11-25T20:08:45.971Z,21.17
2022-11-25T20:11:54.138Z,20.63
2022-11-25T20:14:57.439Z,30.30
2022-11-25T20:18:01.420Z,24.70
2022-11-25T20:21:05.708Z,19.67
2022-11-25T20:24:18.795Z,19.07
2022-11-25T20:27:26.695Z,20.48
2022-11-25T20:30:29.932Z,19.77
2022-11-25T20:33:32.501Z,20.25
2022-11-25T20:36:35.009Z,19.90
2022-11-25T20:39:37.822Z,21.37
2022-11-25T20:42:40.524Z,19.65
2022-11-25T20:45:43.206Z,20.33
2022-11-25T20:48:46.472Z,20.88
2022-11-25T20:51:53.588Z,21.52
2022-11-25T20:54:57.229Z,21.97
2022-11-25T20:58:23.826Z,21.20
2022-11-25T21:01:26.431Z,21.92
2022-11-25T21:04:29.387Z,26.08
2022-11-25T21:07:31.977Z,24.95
2022-11-25T21:10:34.937Z,23.07
2022-11-25T21:13:37.949Z,24.52
2022-11-25T21:16:41.384Z,22.15
2022-11-25T21:19:44.487Z,22.00
2022-11-25T21:22:51.537Z,21.50
2022-11-25T21:25:56.959Z,21.90
2022-11-25T21:28:59.546Z,21.50
2022-11-25T21:32:02.318Z,21.33
2022-11-25T21:35:05.414Z,22.15
2022-11-25T21:38:24.696Z,21.63
2022-11-25T21:41:28.117Z,23.77
2022-11-25T21:44:33.249Z,24.65
2022-11-25T21:47:35.823Z,23.27
2022-11-25T21:50:40.390Z,25.55
2022-11-25T21:53:43.548Z,22.35
2022-11-25T21:56:46.473Z,24.30
2022-11-25T21:59:51.985Z,24.13
2022-11-25T22:02:55.946Z,23.13
2022-11-25T22:05:59.047Z,22.83
2022-11-25T22:09:02.150Z,23.58
2022-11-25T22:12:06.501Z,23.60
2022-11-25T22:15:16.001Z,22.50
2022-11-25T22:18:25.886Z,22.65
2022-11-25T22:21:29.686Z,22.40
2022-11-25T22:24:33.897Z,23.88
2022-11-25T22:27:37.603Z,23.73
2022-11-25T22:30:50.753Z,25.05
2022-11-25T22:33:54.295Z,24.50
2022-11-25T22:36:57.694Z,23.15
2022-11-25T22:40:01.140Z,24.02
2022-11-25T22:43:04.937Z,23.43
2022-11-25T22:46:07.529Z,22.67
2022-11-25T22:49:29.075Z,23.98
2022-11-25T22:52:34.564Z,23.17
2022-11-25T22:55:37.141Z,22.45
2022-11-25T22:58:40.620Z,21.00
2022-11-25T23:01:43.481Z,21.98
2022-11-25T23:04:51.434Z,23.00
2022-11-25T23:07:58.621Z,23.05
2022-11-25T23:11:02.112Z,22.75
2022-11-25T23:14:05.200Z,21.53
2022-11-25T23:17:27.098Z,20.83
2022-11-25T23:20:37.419Z,21.63
2022-11-25T23:23:40.806Z,20.25
2022-11-25T23:26:44.216Z,22.15
2022-11-25T23:29:46.743Z,23.00
2022-11-25T23:32:51.195Z,24.25
2022-11-25T23:35:53.949Z,24.05
2022-11-25T23:39:02.321Z,23.98
2022-11-25T23:42:13.397Z,21.15
2022-11-25T23:45:20.743Z,20.30
2022-11-25T23:48:30.073Z,23.45
2022-11-25T23:51:33.836Z,21.65
2022-11-25T23:54:41.502Z,20.98
2022-11-25T23:57:47.476Z,22.65
